sensor_id;sensor_type;location;lat;lon;timestamp;P1;durP1;ratioP1;P2;durP2;ratioP2
23596;SDS011;40226;50.874;4.394;2023-05-10T00:00:40;1.50;;;1.40;;
23596;SDS011;40226;50.874;4.394;2023-05-10T00:03:06;0.70;;;0.60;;
23596;SDS011;40226;50.874;4.394;2023-05-10T00:05:32;0.60;;;0.57;;
23596;SDS011;40226;50.874;4.394;2023-05-10T00:07:57;0.65;;;0.65;;
23596;SDS011;40226;50.874;4.394;2023-05-10T00:10:23;0.50;;;0.50;;
23596;SDS011;40226;50.874;4.394;2023-05-10T00:12:49;0.50;;;0.50;;
23596;SDS011;40226;50.874;4.394;2023-05-10T00:15:14;2.72;;;1.25;;
23596;SDS011;40226;50.874;4.394;2023-05-10T00:17:40;0.30;;;0.30;;
23596;SDS011;40226;50.874;4.394;2023-05-10T00:20:06;0.55;;;0.55;;
23596;SDS011;40226;50.874;4.394;2023-05-10T00:22:32;4.97;;;1.30;;
23596;SDS011;40226;50.874;4.394;2023-05-10T00:24:58;0.45;;;0.45;;
23596;SDS011;40226;50.874;4.394;2023-05-10T00:27:24;0.30;;;0.30;;
23596;SDS011;40226;50.874;4.394;2023-05-10T00:29:50;1.88;;;1.38;;
23596;SDS011;40226;50.874;4.394;2023-05-10T00:32:15;3.42;;;2.50;;
23596;SDS011;40226;50.874;4.394;2023-05-10T00:34:41;0.77;;;0.77;;
23596;SDS011;40226;50.874;4.394;2023-05-10T00:37:07;1.25;;;1.05;;
23596;SDS011;40226;50.874;4.394;2023-05-10T00:39:33;0.85;;;0.85;;
23596;SDS011;40226;50.874;4.394;2023-05-10T00:41:58;1.55;;;1.45;;
23596;SDS011;40226;50.874;4.394;2023-05-10T00:44:25;1.67;;;1.45;;
23596;SDS011;40226;50.874;4.394;2023-05-10T00:46:50;0.50;;;0.50;;
23596;SDS011;40226;50.874;4.394;2023-05-10T00:49:17;2.75;;;1.55;;
23596;SDS011;40226;50.874;4.394;2023-05-10T00:51:43;0.30;;;0.30;;
23596;SDS011;40226;50.874;4.394;2023-05-10T00:54:12;0.30;;;0.30;;
23596;SDS011;40226;50.874;4.394;2023-05-10T00:56:39;2.45;;;1.55;;
23596;SDS011;40226;50.874;4.394;2023-05-10T00:59:05;0.60;;;0.60;;
23596;SDS011;40226;50.874;4.394;2023-05-10T01:01:33;0.77;;;0.77;;
23596;SDS011;40226;50.874;4.394;2023-05-10T01:03:59;0.63;;;0.47;;
23596;SDS011;40226;50.874;4.394;2023-05-10T01:06:25;0.52;;;0.52;;
23596;SDS011;40226;50.874;4.394;2023-05-10T01:08:50;4.30;;;1.85;;
23596;SDS011;40226;50.874;4.394;2023-05-10T01:11:16;1.38;;;0.75;;
23596;SDS011;40226;50.874;4.394;2023-05-10T01:13:42;0.77;;;0.77;;
23596;SDS011;40226;50.874;4.394;2023-05-10T01:16:10;0.70;;;0.68;;
23596;SDS011;40226;50.874;4.394;2023-05-10T01:18:38;1.02;;;1.02;;
23596;SDS011;40226;50.874;4.394;2023-05-10T01:21:14;0.35;;;0.35;;
23596;SDS011;40226;50.874;4.394;2023-05-10T01:33:01;1.48;;;1.38;;
23596;SDS011;40226;50.874;4.394;2023-05-10T01:35:55;0.75;;;0.75;;
23596;SDS011;40226;50.874;4.394;2023-05-10T01:38:29;1.65;;;0.95;;
23596;SDS011;40226;50.874;4.394;2023-05-10T01:43:52;1.60;;;1.50;;
23596;SDS011;40226;50.874;4.394;2023-05-10T01:46:27;2.20;;;1.58;;
23596;SDS011;40226;50.874;4.394;2023-05-10T01:48:58;2.95;;;2.22;;
23596;SDS011;40226;50.874;4.394;2023-05-10T01:51:29;1.15;;;1.02;;
23596;SDS011;40226;50.874;4.394;2023-05-10T01:54:02;1.60;;;1.50;;
23596;SDS011;40226;50.874;4.394;2023-05-10T01:56:29;1.33;;;0.63;;
23596;SDS011;40226;50.874;4.394;2023-05-10T01:58:57;1.88;;;1.48;;
23596;SDS011;40226;50.874;4.394;2023-05-10T02:01:24;0.60;;;0.60;;
23596;SDS011;40226;50.874;4.394;2023-05-10T02:03:51;1.58;;;1.48;;
23596;SDS011;40226;50.874;4.394;2023-05-10T02:06:20;2.13;;;1.75;;
23596;SDS011;40226;50.874;4.394;2023-05-10T02:08:49;1.80;;;1.60;;
23596;SDS011;40226;50.874;4.394;2023-05-10T02:11:17;1.42;;;1.38;;
23596;SDS011;40226;50.874;4.394;2023-05-10T02:13:46;0.52;;;0.52;;
23596;SDS011;40226;50.874;4.394;2023-05-10T02:16:14;1.38;;;1.27;;
23596;SDS011;40226;50.874;4.394;2023-05-10T02:18:42;1.73;;;1.63;;
23596;SDS011;40226;50.874;4.394;2023-05-10T02:21:08;2.35;;;1.83;;
23596;SDS011;40226;50.874;4.394;2023-05-10T02:23:35;1.90;;;1.58;;
23596;SDS011;40226;50.874;4.394;2023-05-10T02:26:02;1.60;;;1.50;;
23596;SDS011;40226;50.874;4.394;2023-05-10T02:28:30;0.95;;;0.93;;
23596;SDS011;40226;50.874;4.394;2023-05-10T02:30:58;3.13;;;2.47;;
23596;SDS011;40226;50.874;4.394;2023-05-10T02:33:24;1.42;;;1.25;;
23596;SDS011;40226;50.874;4.394;2023-05-10T02:35:51;0.80;;;0.80;;
23596;SDS011;40226;50.874;4.394;2023-05-10T02:38:18;2.22;;;2.10;;
23596;SDS011;40226;50.874;4.394;2023-05-10T02:40:46;1.67;;;1.58;;
23596;SDS011;40226;50.874;4.394;2023-05-10T02:43:14;1.80;;;1.70;;
23596;SDS011;40226;50.874;4.394;2023-05-10T02:45:41;1.05;;;1.05;;
23596;SDS011;40226;50.874;4.394;2023-05-10T02:48:09;5.28;;;2.58;;
23596;SDS011;40226;50.874;4.394;2023-05-10T02:50:34;1.85;;;0.88;;
23596;SDS011;40226;50.874;4.394;2023-05-10T02:53:03;0.65;;;0.55;;
23596;SDS011;40226;50.874;4.394;2023-05-10T02:55:41;0.95;;;0.93;;
23596;SDS011;40226;50.874;4.394;2023-05-10T02:58:10;2.45;;;1.58;;
23596;SDS011;40226;50.874;4.394;2023-05-10T03:00:36;4.75;;;2.05;;
23596;SDS011;40226;50.874;4.394;2023-05-10T03:03:01;1.75;;;1.30;;
23596;SDS011;40226;50.874;4.394;2023-05-10T03:05:27;3.03;;;1.40;;
23596;SDS011;40226;50.874;4.394;2023-05-10T03:07:53;1.90;;;1.40;;
23596;SDS011;40226;50.874;4.394;2023-05-10T03:10:19;2.28;;;1.95;;
23596;SDS011;40226;50.874;4.394;2023-05-10T03:18:21;0.50;;;0.50;;
23596;SDS011;40226;50.874;4.394;2023-05-10T03:20:49;0.75;;;0.75;;
23596;SDS011;40226;50.874;4.394;2023-05-10T03:23:21;7.32;;;1.85;;
23596;SDS011;40226;50.874;4.394;2023-05-10T03:25:52;0.47;;;0.47;;
23596;SDS011;40226;50.874;4.394;2023-05-10T03:28:18;0.65;;;0.65;;
23596;SDS011;40226;50.874;4.394;2023-05-10T03:30:45;3.15;;;2.08;;
23596;SDS011;40226;50.874;4.394;2023-05-10T03:33:12;1.45;;;1.38;;
23596;SDS011;40226;50.874;4.394;2023-05-10T03:35:38;2.08;;;1.75;;
23596;SDS011;40226;50.874;4.394;2023-05-10T03:38:04;2.70;;;1.33;;
23596;SDS011;40226;50.874;4.394;2023-05-10T03:40:30;1.25;;;1.25;;
23596;SDS011;40226;50.874;4.394;2023-05-10T03:42:57;1.27;;;1.17;;
23596;SDS011;40226;50.874;4.394;2023-05-10T03:45:26;22.38;;;1.83;;
23596;SDS011;40226;50.874;4.394;2023-05-10T03:47:52;5.15;;;3.10;;
23596;SDS011;40226;50.874;4.394;2023-05-10T03:50:17;4.18;;;1.38;;
23596;SDS011;40226;50.874;4.394;2023-05-10T03:52:43;3.65;;;2.15;;
23596;SDS011;40226;50.874;4.394;2023-05-10T03:55:09;5.03;;;2.20;;
23596;SDS011;40226;50.874;4.394;2023-05-10T03:57:35;1.85;;;1.20;;
23596;SDS011;40226;50.874;4.394;2023-05-10T04:00:01;1.20;;;1.13;;
23596;SDS011;40226;50.874;4.394;2023-05-10T04:02:27;2.72;;;1.98;;
23596;SDS011;40226;50.874;4.394;2023-05-10T04:04:54;2.25;;;1.52;;
23596;SDS011;40226;50.874;4.394;2023-05-10T04:07:20;1.23;;;1.20;;
23596;SDS011;40226;50.874;4.394;2023-05-10T04:09:46;2.60;;;1.23;;
23596;SDS011;40226;50.874;4.394;2023-05-10T04:12:12;2.75;;;1.85;;
23596;SDS011;40226;50.874;4.394;2023-05-10T04:14:37;6.90;;;1.63;;
23596;SDS011;40226;50.874;4.394;2023-05-10T04:17:03;3.05;;;2.35;;
23596;SDS011;40226;50.874;4.394;2023-05-10T04:19:32;2.25;;;1.27;;
23596;SDS011;40226;50.874;4.394;2023-05-10T04:21:58;1.55;;;1.45;;
23596;SDS011;40226;50.874;4.394;2023-05-10T04:26:59;2.97;;;2.72;;
23596;SDS011;40226;50.874;4.394;2023-05-10T04:29:25;3.78;;;1.77;;
23596;SDS011;40226;50.874;4.394;2023-05-10T04:31:51;3.75;;;3.08;;
23596;SDS011;40226;50.874;4.394;2023-05-10T04:34:17;1.83;;;1.73;;
23596;SDS011;40226;50.874;4.394;2023-05-10T04:36:43;1.40;;;1.30;;
23596;SDS011;40226;50.874;4.394;2023-05-10T04:39:09;6.70;;;2.33;;
23596;SDS011;40226;50.874;4.394;2023-05-10T04:41:34;1.17;;;1.02;;
23596;SDS011;40226;50.874;4.394;2023-05-10T04:44:00;1.83;;;1.60;;
23596;SDS011;40226;50.874;4.394;2023-05-10T04:46:26;1.40;;;1.35;;
23596;SDS011;40226;50.874;4.394;2023-05-10T04:48:51;2.78;;;1.67;;
23596;SDS011;40226;50.874;4.394;2023-05-10T04:51:17;2.17;;;2.08;;
23596;SDS011;40226;50.874;4.394;2023-05-10T04:53:42;4.45;;;1.55;;
23596;SDS011;40226;50.874;4.394;2023-05-10T04:56:08;3.05;;;1.23;;
23596;SDS011;40226;50.874;4.394;2023-05-10T04:58:34;1.98;;;1.88;;
23596;SDS011;40226;50.874;4.394;2023-05-10T05:01:06;1.63;;;1.52;;
23596;SDS011;40226;50.874;4.394;2023-05-10T05:03:33;3.55;;;3.13;;
23596;SDS011;40226;50.874;4.394;2023-05-10T05:05:58;0.73;;;0.73;;
23596;SDS011;40226;50.874;4.394;2023-05-10T05:08:24;6.45;;;1.90;;
23596;SDS011;40226;50.874;4.394;2023-05-10T05:10:50;2.55;;;2.35;;
23596;SDS011;40226;50.874;4.394;2023-05-10T05:13:15;2.53;;;1.15;;
23596;SDS011;40226;50.874;4.394;2023-05-10T05:15:41;2.78;;;2.58;;
23596;SDS011;40226;50.874;4.394;2023-05-10T05:18:07;1.45;;;1.35;;
23596;SDS011;40226;50.874;4.394;2023-05-10T05:20:33;1.88;;;1.77;;
23596;SDS011;40226;50.874;4.394;2023-05-10T05:22:59;2.20;;;2.08;;
23596;SDS011;40226;50.874;4.394;2023-05-10T05:25:25;1.25;;;1.25;;
23596;SDS011;40226;50.874;4.394;2023-05-10T05:27:51;2.67;;;2.38;;
23596;SDS011;40226;50.874;4.394;2023-05-10T05:30:16;1.38;;;1.33;;
23596;SDS011;40226;50.874;4.394;2023-05-10T05:32:42;0.60;;;0.60;;
23596;SDS011;40226;50.874;4.394;2023-05-10T05:35:08;1.92;;;1.65;;
23596;SDS011;40226;50.874;4.394;2023-05-10T05:37:33;1.30;;;0.88;;
23596;SDS011;40226;50.874;4.394;2023-05-10T05:40:00;5.45;;;3.65;;
23596;SDS011;40226;50.874;4.394;2023-05-10T05:42:26;2.53;;;1.88;;
23596;SDS011;40226;50.874;4.394;2023-05-10T05:44:52;1.48;;;1.42;;
23596;SDS011;40226;50.874;4.394;2023-05-10T05:47:18;3.35;;;1.98;;
23596;SDS011;40226;50.874;4.394;2023-05-10T05:49:43;2.95;;;1.80;;
23596;SDS011;40226;50.874;4.394;2023-05-10T05:52:11;3.92;;;1.95;;
23596;SDS011;40226;50.874;4.394;2023-05-10T05:54:36;0.55;;;0.55;;
23596;SDS011;40226;50.874;4.394;2023-05-10T05:57:02;1.48;;;1.38;;
23596;SDS011;40226;50.874;4.394;2023-05-10T05:59:28;3.33;;;2.00;;
23596;SDS011;40226;50.874;4.394;2023-05-10T06:01:53;4.25;;;1.55;;
23596;SDS011;40226;50.874;4.394;2023-05-10T06:04:19;2.05;;;1.90;;
23596;SDS011;40226;50.874;4.394;2023-05-10T06:06:45;1.60;;;1.52;;
23596;SDS011;40226;50.874;4.394;2023-05-10T06:09:11;2.00;;;1.80;;
23596;SDS011;40226;50.874;4.394;2023-05-10T06:11:36;0.68;;;0.68;;
23596;SDS011;40226;50.874;4.394;2023-05-10T06:14:02;2.95;;;2.58;;
23596;SDS011;40226;50.874;4.394;2023-05-10T06:16:33;1.23;;;0.80;;
23596;SDS011;40226;50.874;4.394;2023-05-10T06:18:59;1.38;;;1.27;;
23596;SDS011;40226;50.874;4.394;2023-05-10T06:21:24;1.70;;;1.17;;
23596;SDS011;40226;50.874;4.394;2023-05-10T06:23:50;1.48;;;0.75;;
23596;SDS011;40226;50.874;4.394;2023-05-10T06:26:16;2.90;;;2.45;;
23596;SDS011;40226;50.874;4.394;2023-05-10T06:28:41;3.50;;;1.85;;
23596;SDS011;40226;50.874;4.394;2023-05-10T06:31:07;1.13;;;1.02;;
23596;SDS011;40226;50.874;4.394;2023-05-10T06:33:33;2.95;;;1.85;;
23596;SDS011;40226;50.874;4.394;2023-05-10T06:35:59;1.50;;;1.40;;
23596;SDS011;40226;50.874;4.394;2023-05-10T06:38:25;3.42;;;2.65;;
23596;SDS011;40226;50.874;4.394;2023-05-10T06:40:51;0.82;;;0.82;;
23596;SDS011;40226;50.874;4.394;2023-05-10T06:43:17;2.58;;;1.65;;
23596;SDS011;40226;50.874;4.394;2023-05-10T06:45:42;0.70;;;0.70;;
23596;SDS011;40226;50.874;4.394;2023-05-10T06:48:08;2.33;;;1.63;;
23596;SDS011;40226;50.874;4.394;2023-05-10T06:50:34;3.35;;;1.02;;
23596;SDS011;40226;50.874;4.394;2023-05-10T06:53:00;30.02;;;15.57;;
23596;SDS011;40226;50.874;4.394;2023-05-10T06:55:26;21.45;;;12.60;;
23596;SDS011;40226;50.874;4.394;2023-05-10T06:57:52;25.25;;;13.80;;
23596;SDS011;40226;50.874;4.394;2023-05-10T07:00:18;23.52;;;12.23;;
23596;SDS011;40226;50.874;4.394;2023-05-10T07:02:44;28.05;;;14.13;;
23596;SDS011;40226;50.874;4.394;2023-05-10T07:05:10;29.13;;;14.05;;
23596;SDS011;40226;50.874;4.394;2023-05-10T07:07:36;30.40;;;15.98;;
23596;SDS011;40226;50.874;4.394;2023-05-10T07:10:02;35.03;;;16.88;;
23596;SDS011;40226;50.874;4.394;2023-05-10T07:12:30;38.83;;;17.10;;
23596;SDS011;40226;50.874;4.394;2023-05-10T07:14:56;28.90;;;15.18;;
23596;SDS011;40226;50.874;4.394;2023-05-10T07:17:22;33.17;;;14.25;;
23596;SDS011;40226;50.874;4.394;2023-05-10T07:19:47;32.42;;;16.38;;
23596;SDS011;40226;50.874;4.394;2023-05-10T07:22:14;31.50;;;15.38;;
23596;SDS011;40226;50.874;4.394;2023-05-10T07:24:40;39.08;;;17.60;;
23596;SDS011;40226;50.874;4.394;2023-05-10T07:27:06;31.75;;;16.73;;
23596;SDS011;40226;50.874;4.394;2023-05-10T07:29:32;40.72;;;17.70;;
23596;SDS011;40226;50.874;4.394;2023-05-10T07:31:58;35.60;;;16.33;;
23596;SDS011;40226;50.874;4.394;2023-05-10T07:34:23;38.55;;;17.63;;
23596;SDS011;40226;50.874;4.394;2023-05-10T07:36:51;37.88;;;17.30;;
23596;SDS011;40226;50.874;4.394;2023-05-10T07:39:17;40.65;;;19.00;;
23596;SDS011;40226;50.874;4.394;2023-05-10T07:41:42;38.85;;;17.17;;
23596;SDS011;40226;50.874;4.394;2023-05-10T07:44:08;38.17;;;18.05;;
23596;SDS011;40226;50.874;4.394;2023-05-10T07:46:34;33.10;;;15.15;;
23596;SDS011;40226;50.874;4.394;2023-05-10T07:48:59;35.17;;;15.65;;
23596;SDS011;40226;50.874;4.394;2023-05-10T07:51:25;29.15;;;14.82;;
23596;SDS011;40226;50.874;4.394;2023-05-10T07:53:51;35.63;;;15.57;;
23596;SDS011;40226;50.874;4.394;2023-05-10T07:58:48;36.85;;;16.38;;
23596;SDS011;40226;50.874;4.394;2023-05-10T08:01:14;30.63;;;14.70;;
23596;SDS011;40226;50.874;4.394;2023-05-10T08:03:40;34.70;;;15.40;;
23596;SDS011;40226;50.874;4.394;2023-05-10T08:06:05;29.25;;;14.88;;
23596;SDS011;40226;50.874;4.394;2023-05-10T08:08:31;26.50;;;14.48;;
23596;SDS011;40226;50.874;4.394;2023-05-10T08:10:57;29.90;;;15.80;;
23596;SDS011;40226;50.874;4.394;2023-05-10T08:13:22;31.52;;;13.43;;
23596;SDS011;40226;50.874;4.394;2023-05-10T08:15:48;28.13;;;13.73;;
23596;SDS011;40226;50.874;4.394;2023-05-10T08:18:13;28.05;;;12.95;;
23596;SDS011;40226;50.874;4.394;2023-05-10T08:20:39;23.40;;;13.30;;
23596;SDS011;40226;50.874;4.394;2023-05-10T08:23:05;27.10;;;13.52;;
23596;SDS011;40226;50.874;4.394;2023-05-10T08:25:31;30.00;;;12.77;;
23596;SDS011;40226;50.874;4.394;2023-05-10T08:27:57;26.98;;;13.45;;
23596;SDS011;40226;50.874;4.394;2023-05-10T08:30:22;25.13;;;13.65;;
23596;SDS011;40226;50.874;4.394;2023-05-10T08:32:48;26.13;;;12.05;;
23596;SDS011;40226;50.874;4.394;2023-05-10T08:35:14;18.90;;;10.32;;
23596;SDS011;40226;50.874;4.394;2023-05-10T08:37:40;16.10;;;9.93;;
23596;SDS011;40226;50.874;4.394;2023-05-10T08:40:06;17.80;;;9.43;;
23596;SDS011;40226;50.874;4.394;2023-05-10T08:42:35;16.40;;;9.07;;
23596;SDS011;40226;50.874;4.394;2023-05-10T08:45:05;18.98;;;10.40;;
23596;SDS011;40226;50.874;4.394;2023-05-10T08:47:33;16.95;;;10.43;;
23596;SDS011;40226;50.874;4.394;2023-05-10T08:50:01;17.20;;;10.35;;
23596;SDS011;40226;50.874;4.394;2023-05-10T08:52:28;17.85;;;10.43;;
23596;SDS011;40226;50.874;4.394;2023-05-10T08:54:56;19.20;;;10.55;;
23596;SDS011;40226;50.874;4.394;2023-05-10T08:57:22;19.40;;;10.00;;
23596;SDS011;40226;50.874;4.394;2023-05-10T08:59:47;19.25;;;10.90;;
23596;SDS011;40226;50.874;4.394;2023-05-10T09:02:13;18.58;;;10.60;;
23596;SDS011;40226;50.874;4.394;2023-05-10T09:04:39;19.40;;;11.25;;
23596;SDS011;40226;50.874;4.394;2023-05-10T09:07:06;16.45;;;9.60;;
23596;SDS011;40226;50.874;4.394;2023-05-10T09:09:31;18.15;;;10.65;;
23596;SDS011;40226;50.874;4.394;2023-05-10T09:11:58;17.30;;;10.63;;
23596;SDS011;40226;50.874;4.394;2023-05-10T09:14:24;16.23;;;10.90;;
23596;SDS011;40226;50.874;4.394;2023-05-10T09:16:51;17.52;;;10.25;;
23596;SDS011;40226;50.874;4.394;2023-05-10T09:19:20;17.48;;;10.32;;
23596;SDS011;40226;50.874;4.394;2023-05-10T09:21:45;18.80;;;9.60;;
23596;SDS011;40226;50.874;4.394;2023-05-10T09:24:11;19.35;;;10.57;;
23596;SDS011;40226;50.874;4.394;2023-05-10T09:26:45;16.40;;;9.80;;
23596;SDS011;40226;50.874;4.394;2023-05-10T09:29:15;18.60;;;9.80;;
23596;SDS011;40226;50.874;4.394;2023-05-10T09:31:50;18.77;;;10.85;;
23596;SDS011;40226;50.874;4.394;2023-05-10T09:34:17;20.50;;;11.02;;
23596;SDS011;40226;50.874;4.394;2023-05-10T09:36:54;18.27;;;10.88;;
23596;SDS011;40226;50.874;4.394;2023-05-10T09:39:28;19.58;;;11.02;;
23596;SDS011;40226;50.874;4.394;2023-05-10T09:42:03;16.88;;;9.73;;
23596;SDS011;40226;50.874;4.394;2023-05-10T09:44:33;16.48;;;9.40;;
23596;SDS011;40226;50.874;4.394;2023-05-10T09:47:00;16.55;;;9.23;;
23596;SDS011;40226;50.874;4.394;2023-05-10T09:49:27;16.05;;;8.85;;
23596;SDS011;40226;50.874;4.394;2023-05-10T09:52:03;14.32;;;8.07;;
23596;SDS011;40226;50.874;4.394;2023-05-10T09:54:30;15.02;;;8.70;;
23596;SDS011;40226;50.874;4.394;2023-05-10T09:56:56;13.48;;;7.85;;
23596;SDS011;40226;50.874;4.394;2023-05-10T09:59:22;14.77;;;8.32;;
23596;SDS011;40226;50.874;4.394;2023-05-10T10:01:51;15.32;;;9.02;;
23596;SDS011;40226;50.874;4.394;2023-05-10T10:04:20;15.63;;;8.80;;
23596;SDS011;40226;50.874;4.394;2023-05-10T10:06:46;18.65;;;10.23;;
23596;SDS011;40226;50.874;4.394;2023-05-10T10:09:22;17.02;;;9.32;;
23596;SDS011;40226;50.874;4.394;2023-05-10T10:11:49;15.48;;;8.98;;
23596;SDS011;40226;50.874;4.394;2023-05-10T10:14:16;16.52;;;10.15;;
23596;SDS011;40226;50.874;4.394;2023-05-10T10:16:43;14.40;;;9.48;;
23596;SDS011;40226;50.874;4.394;2023-05-10T10:19:09;16.88;;;10.00;;
23596;SDS011;40226;50.874;4.394;2023-05-10T10:21:35;17.38;;;9.98;;
23596;SDS011;40226;50.874;4.394;2023-05-10T10:24:01;19.77;;;10.85;;
23596;SDS011;40226;50.874;4.394;2023-05-10T10:26:26;17.55;;;10.00;;
23596;SDS011;40226;50.874;4.394;2023-05-10T10:34:32;15.68;;;10.43;;
23596;SDS011;40226;50.874;4.394;2023-05-10T10:36:59;19.08;;;10.32;;
23596;SDS011;40226;50.874;4.394;2023-05-10T10:39:29;18.08;;;10.90;;
23596;SDS011;40226;50.874;4.394;2023-05-10T10:41:56;16.27;;;10.10;;
23596;SDS011;40226;50.874;4.394;2023-05-10T10:47:09;15.98;;;9.93;;
23596;SDS011;40226;50.874;4.394;2023-05-10T10:52:39;15.73;;;10.02;;
23596;SDS011;40226;50.874;4.394;2023-05-10T10:55:09;17.10;;;9.38;;
23596;SDS011;40226;50.874;4.394;2023-05-10T11:00:18;17.17;;;8.70;;
23596;SDS011;40226;50.874;4.394;2023-05-10T11:02:51;18.63;;;9.55;;
23596;SDS011;40226;50.874;4.394;2023-05-10T11:05:38;17.30;;;9.45;;
23596;SDS011;40226;50.874;4.394;2023-05-10T11:18:39;21.15;;;12.05;;
23596;SDS011;40226;50.874;4.394;2023-05-10T11:21:04;20.15;;;12.02;;
23596;SDS011;40226;50.874;4.394;2023-05-10T11:23:56;20.40;;;12.40;;
23596;SDS011;40226;50.874;4.394;2023-05-10T11:26:23;18.15;;;11.18;;
23596;SDS011;40226;50.874;4.394;2023-05-10T11:28:51;19.88;;;11.13;;
23596;SDS011;40226;50.874;4.394;2023-05-10T11:31:20;18.67;;;11.50;;
23596;SDS011;40226;50.874;4.394;2023-05-10T11:33:47;15.55;;;8.98;;
23596;SDS011;40226;50.874;4.394;2023-05-10T11:36:20;17.75;;;10.10;;
23596;SDS011;40226;50.874;4.394;2023-05-10T11:38:47;17.95;;;10.85;;
23596;SDS011;40226;50.874;4.394;2023-05-10T11:41:13;18.65;;;11.88;;
23596;SDS011;40226;50.874;4.394;2023-05-10T11:43:40;20.33;;;10.45;;
23596;SDS011;40226;50.874;4.394;2023-05-10T11:46:10;16.88;;;10.98;;
23596;SDS011;40226;50.874;4.394;2023-05-10T11:48:40;16.98;;;10.80;;
23596;SDS011;40226;50.874;4.394;2023-05-10T11:51:07;13.90;;;9.63;;
23596;SDS011;40226;50.874;4.394;2023-05-10T11:53:33;16.85;;;9.45;;
23596;SDS011;40226;50.874;4.394;2023-05-10T11:56:02;15.60;;;9.20;;
23596;SDS011;40226;50.874;4.394;2023-05-10T11:58:32;13.45;;;9.27;;
23596;SDS011;40226;50.874;4.394;2023-05-10T12:00:59;14.38;;;9.70;;
23596;SDS011;40226;50.874;4.394;2023-05-10T12:03:25;17.33;;;9.10;;
23596;SDS011;40226;50.874;4.394;2023-05-10T12:05:55;12.32;;;8.10;;
23596;SDS011;40226;50.874;4.394;2023-05-10T12:08:22;12.18;;;8.80;;
23596;SDS011;40226;50.874;4.394;2023-05-10T12:10:52;13.38;;;8.88;;
23596;SDS011;40226;50.874;4.394;2023-05-10T12:13:19;16.75;;;10.18;;
23596;SDS011;40226;50.874;4.394;2023-05-10T12:15:46;13.77;;;8.88;;
23596;SDS011;40226;50.874;4.394;2023-05-10T12:18:12;15.18;;;9.55;;
23596;SDS011;40226;50.874;4.394;2023-05-10T12:20:39;13.90;;;9.25;;
23596;SDS011;40226;50.874;4.394;2023-05-10T12:23:05;12.27;;;8.45;;
23596;SDS011;40226;50.874;4.394;2023-05-10T12:25:34;14.13;;;8.80;;
23596;SDS011;40226;50.874;4.394;2023-05-10T12:28:06;12.85;;;7.95;;
23596;SDS011;40226;50.874;4.394;2023-05-10T12:30:34;14.05;;;9.27;;
23596;SDS011;40226;50.874;4.394;2023-05-10T12:33:10;15.82;;;10.23;;
23596;SDS011;40226;50.874;4.394;2023-05-10T12:35:44;17.95;;;11.02;;
23596;SDS011;40226;50.874;4.394;2023-05-10T12:38:32;15.30;;;11.00;;
23596;SDS011;40226;50.874;4.394;2023-05-10T12:40:59;18.25;;;11.35;;
23596;SDS011;40226;50.874;4.394;2023-05-10T12:43:26;17.45;;;11.10;;
23596;SDS011;40226;50.874;4.394;2023-05-10T12:45:52;15.50;;;11.25;;
23596;SDS011;40226;50.874;4.394;2023-05-10T12:48:18;16.63;;;11.32;;
23596;SDS011;40226;50.874;4.394;2023-05-10T12:50:43;19.13;;;10.43;;
23596;SDS011;40226;50.874;4.394;2023-05-10T12:53:09;13.30;;;9.38;;
23596;SDS011;40226;50.874;4.394;2023-05-10T12:55:35;15.35;;;9.52;;
23596;SDS011;40226;50.874;4.394;2023-05-10T12:58:01;13.80;;;9.13;;
23596;SDS011;40226;50.874;4.394;2023-05-10T13:00:26;14.45;;;8.45;;
23596;SDS011;40226;50.874;4.394;2023-05-10T13:02:52;12.35;;;7.65;;
23596;SDS011;40226;50.874;4.394;2023-05-10T13:05:18;10.48;;;7.25;;
23596;SDS011;40226;50.874;4.394;2023-05-10T13:07:43;12.13;;;7.85;;
23596;SDS011;40226;50.874;4.394;2023-05-10T13:10:09;10.30;;;8.05;;
23596;SDS011;40226;50.874;4.394;2023-05-10T13:12:35;14.65;;;8.35;;
23596;SDS011;40226;50.874;4.394;2023-05-10T13:15:01;11.32;;;7.10;;
23596;SDS011;40226;50.874;4.394;2023-05-10T13:17:28;10.32;;;7.00;;
23596;SDS011;40226;50.874;4.394;2023-05-10T13:19:54;12.45;;;7.40;;
23596;SDS011;40226;50.874;4.394;2023-05-10T13:22:20;11.73;;;8.32;;
23596;SDS011;40226;50.874;4.394;2023-05-10T13:24:45;11.80;;;7.63;;
23596;SDS011;40226;50.874;4.394;2023-05-10T13:27:11;10.75;;;7.20;;
23596;SDS011;40226;50.874;4.394;2023-05-10T13:29:36;11.48;;;6.60;;
23596;SDS011;40226;50.874;4.394;2023-05-10T13:32:02;11.60;;;7.15;;
23596;SDS011;40226;50.874;4.394;2023-05-10T13:34:28;16.23;;;8.20;;
23596;SDS011;40226;50.874;4.394;2023-05-10T13:36:53;14.60;;;8.52;;
23596;SDS011;40226;50.874;4.394;2023-05-10T13:39:21;15.95;;;8.98;;
23596;SDS011;40226;50.874;4.394;2023-05-10T13:41:46;11.57;;;8.38;;
23596;SDS011;40226;50.874;4.394;2023-05-10T13:44:12;11.80;;;8.35;;
23596;SDS011;40226;50.874;4.394;2023-05-10T13:46:39;13.00;;;8.20;;
23596;SDS011;40226;50.874;4.394;2023-05-10T13:49:05;12.85;;;8.18;;
23596;SDS011;40226;50.874;4.394;2023-05-10T13:51:33;13.98;;;8.65;;
23596;SDS011;40226;50.874;4.394;2023-05-10T13:53:59;11.27;;;8.43;;
23596;SDS011;40226;50.874;4.394;2023-05-10T13:56:25;14.23;;;9.32;;
23596;SDS011;40226;50.874;4.394;2023-05-10T13:58:50;16.00;;;9.93;;
23596;SDS011;40226;50.874;4.394;2023-05-10T14:01:16;20.67;;;11.20;;
23596;SDS011;40226;50.874;4.394;2023-05-10T14:03:42;16.23;;;10.02;;
23596;SDS011;40226;50.874;4.394;2023-05-10T14:06:07;16.30;;;10.70;;
23596;SDS011;40226;50.874;4.394;2023-05-10T14:08:33;18.10;;;11.32;;
23596;SDS011;40226;50.874;4.394;2023-05-10T14:11:00;18.80;;;11.73;;
23596;SDS011;40226;50.874;4.394;2023-05-10T14:13:26;19.30;;;13.18;;
23596;SDS011;40226;50.874;4.394;2023-05-10T14:15:52;17.83;;;13.02;;
23596;SDS011;40226;50.874;4.394;2023-05-10T14:18:18;19.15;;;13.02;;
23596;SDS011;40226;50.874;4.394;2023-05-10T14:20:44;21.67;;;13.35;;
23596;SDS011;40226;50.874;4.394;2023-05-10T14:23:10;19.55;;;13.07;;
23596;SDS011;40226;50.874;4.394;2023-05-10T14:25:36;20.38;;;14.18;;
23596;SDS011;40226;50.874;4.394;2023-05-10T14:28:05;20.92;;;14.60;;
23596;SDS011;40226;50.874;4.394;2023-05-10T14:30:31;24.75;;;14.85;;
23596;SDS011;40226;50.874;4.394;2023-05-10T14:32:56;24.20;;;14.30;;
23596;SDS011;40226;50.874;4.394;2023-05-10T14:35:23;24.88;;;14.90;;
23596;SDS011;40226;50.874;4.394;2023-05-10T14:37:49;21.20;;;14.18;;
23596;SDS011;40226;50.874;4.394;2023-05-10T14:40:15;19.10;;;13.48;;
23596;SDS011;40226;50.874;4.394;2023-05-10T14:42:42;23.58;;;13.07;;
23596;SDS011;40226;50.874;4.394;2023-05-10T14:45:08;23.63;;;13.82;;
23596;SDS011;40226;50.874;4.394;2023-05-10T14:47:34;19.85;;;13.73;;
23596;SDS011;40226;50.874;4.394;2023-05-10T14:50:00;21.73;;;14.18;;
23596;SDS011;40226;50.874;4.394;2023-05-10T14:52:25;21.17;;;14.38;;
23596;SDS011;40226;50.874;4.394;2023-05-10T14:54:51;27.42;;;15.50;;
23596;SDS011;40226;50.874;4.394;2023-05-10T14:57:17;22.08;;;14.80;;
23596;SDS011;40226;50.874;4.394;2023-05-10T14:59:43;23.75;;;14.75;;
23596;SDS011;40226;50.874;4.394;2023-05-10T15:02:08;25.65;;;14.50;;
23596;SDS011;40226;50.874;4.394;2023-05-10T15:04:35;17.60;;;11.07;;
23596;SDS011;40226;50.874;4.394;2023-05-10T15:07:00;18.23;;;10.38;;
23596;SDS011;40226;50.874;4.394;2023-05-10T15:09:26;13.88;;;9.45;;
23596;SDS011;40226;50.874;4.394;2023-05-10T15:11:55;14.80;;;9.77;;
23596;SDS011;40226;50.874;4.394;2023-05-10T15:14:21;16.00;;;9.95;;
23596;SDS011;40226;50.874;4.394;2023-05-10T15:16:47;18.35;;;9.48;;
23596;SDS011;40226;50.874;4.394;2023-05-10T15:19:13;15.38;;;7.10;;
23596;SDS011;40226;50.874;4.394;2023-05-10T15:21:38;10.80;;;5.07;;